createdAt,value
2022-09-24T00:01:40.602Z,98868.53
2022-09-24T00:04:10.448Z,98862.06
2022-09-24T00:06:42.029Z,98859.38
2022-09-24T00:09:10.996Z,98871.25
2022-09-24T00:11:39.777Z,98870.06
2022-09-24T00:14:08.137Z,98851.09
2022-09-24T00:16:36.482Z,98853.63
2022-09-24T00:19:05.324Z,98858.47
2022-09-24T00:21:35.813Z,98866.84
2022-09-24T00:24:09.674Z,98852.34
2022-09-24T00:26:52.198Z,98858.59
2022-09-24T00:29:22.020Z,98853.66
2022-09-24T00:31:51.204Z,98854.88
2022-09-24T00:34:19.754Z,98861.06
2022-09-24T00:36:47.534Z,98862.78
2022-09-24T00:39:17.779Z,98858.94
2022-09-24T00:41:47.229Z,98869.09
2022-09-24T00:44:54.337Z,98852.94
2022-09-24T00:47:31.439Z,98858.22
2022-09-24T00:50:14.083Z,98849.47
2022-09-24T00:52:45.814Z,98851.47
2022-09-24T00:55:16.551Z,98851.47
2022-09-24T00:57:46.146Z,98850.16
2022-09-24T01:00:15.201Z,98847.75
2022-09-24T01:02:47.101Z,98848.50
2022-09-24T01:05:14.925Z,98848.09
2022-09-24T01:07:42.735Z,98849.75
2022-09-24T01:10:11.825Z,98849.47
2022-09-24T01:12:48.041Z,98826.19
2022-09-24T01:15:25.552Z,98825.34
2022-09-24T01:18:02.847Z,98820.09
2022-09-24T01:21:05.143Z,98811.91
2022-09-24T01:24:09.009Z,98814.00
2022-09-24T01:26:51.181Z,98813.81
2022-09-24T01:29:33.450Z,98806.38
2022-09-24T01:32:08.253Z,98796.00
2022-09-24T01:34:41.235Z,98793.25
2022-09-24T01:37:09.641Z,98790.84
2022-09-24T01:39:38.909Z,98789.81
2022-09-24T01:42:08.208Z,98781.09
2022-09-24T01:44:38.133Z,98783.63
2022-09-24T01:47:07.600Z,98781.88
2022-09-24T01:49:35.348Z,98775.94
2022-09-24T01:52:07.981Z,98777.16
2022-09-24T01:54:38.467Z,98771.34
2022-09-24T01:57:11.489Z,98772.09
2022-09-24T01:59:47.273Z,98769.56
2022-09-24T02:02:22.974Z,98772.81
2022-09-24T02:04:58.621Z,98775.00
2022-09-24T02:07:34.460Z,98772.63
2022-09-24T02:10:02.280Z,98767.81
2022-09-24T02:12:34.050Z,98767.31
2022-09-24T02:15:11.425Z,98764.88
2022-09-24T02:17:42.856Z,98765.34
2022-09-24T02:20:15.344Z,98770.72
2022-09-24T02:22:46.285Z,98768.13
2022-09-24T02:25:17.753Z,98769.13
2022-09-24T02:27:45.561Z,98769.66
2022-09-24T02:30:14.745Z,98772.69
2022-09-24T02:32:45.036Z,98764.91
2022-09-24T02:35:13.276Z,98758.72
2022-09-24T02:37:43.107Z,98751.69
2022-09-24T02:40:13.846Z,98753.66
2022-09-24T02:42:43.400Z,98755.91
2022-09-24T02:45:12.307Z,98756.63
2022-09-24T02:47:42.594Z,98751.69
2022-09-24T02:50:10.753Z,98751.16
2022-09-24T02:52:38.521Z,98741.69
2022-09-24T02:55:06.795Z,98735.97
2022-09-24T02:57:34.735Z,98738.66
2022-09-24T03:00:02.995Z,98737.72
2022-09-24T03:02:31.442Z,98739.25
2022-09-24T03:05:00.706Z,98732.78
2022-09-24T03:07:28.425Z,98739.56
2022-09-24T03:09:56.161Z,98733.56
2022-09-24T03:12:24.916Z,98737.97
2022-09-24T03:14:52.902Z,98743.16
2022-09-24T03:17:20.651Z,98738.84
2022-09-24T03:19:48.421Z,98740.72
2022-09-24T03:22:17.514Z,98743.88
2022-09-24T03:24:45.851Z,98733.78
2022-09-24T03:27:14.108Z,98733.72
2022-09-24T03:29:59.159Z,98734.09
2022-09-24T03:32:27.778Z,98740.56
2022-09-24T03:34:55.534Z,98748.81
2022-09-24T03:37:24.605Z,98746.34
2022-09-24T03:39:52.458Z,98745.63
2022-09-24T03:42:20.202Z,98742.72
2022-09-24T03:44:47.912Z,98741.41
2022-09-24T03:47:15.689Z,98741.94
2022-09-24T03:49:43.413Z,98742.38
2022-09-24T03:52:11.152Z,98743.34
2022-09-24T03:54:40.922Z,98732.97
2022-09-24T03:57:08.703Z,98742.97
2022-09-24T03:59:36.425Z,98735.13
2022-09-24T04:02:04.403Z,98736.25
2022-09-24T04:04:32.127Z,98736.19
2022-09-24T04:06:59.950Z,98737.44
2022-09-24T04:09:27.826Z,98733.56
2022-09-24T04:11:56.976Z,98730.00
2022-09-24T04:14:24.848Z,98729.13
2022-09-24T04:16:53.072Z,98737.78
2022-09-24T04:19:20.863Z,98729.34
2022-09-24T04:21:48.599Z,98734.44
2022-09-24T04:24:16.474Z,98733.56
2022-09-24T04:26:44.164Z,98728.22
2022-09-24T04:29:13.970Z,98728.88
2022-09-24T04:31:41.776Z,98722.56
2022-09-24T04:34:10.579Z,98723.78
2022-09-24T04:36:38.373Z,98719.84
2022-09-24T04:39:06.258Z,98722.34
2022-09-24T04:41:35.070Z,98719.78
2022-09-24T04:44:03.807Z,98724.22
2022-09-24T04:46:34.416Z,98716.13
2022-09-24T04:49:02.488Z,98727.44
2022-09-24T04:51:34.215Z,98727.78
2022-09-24T04:54:02.791Z,98732.44
2022-09-24T04:56:30.955Z,98730.56
2022-09-24T04:58:59.138Z,98717.38
2022-09-24T05:01:27.005Z,98717.66
2022-09-24T05:03:56.178Z,98722.53
2022-09-24T05:06:24.172Z,98717.09
2022-09-24T05:08:51.923Z,98715.59
2022-09-24T05:11:20.369Z,98724.31
2022-09-24T05:13:48.231Z,98725.09
2022-09-24T05:16:16.210Z,98720.47
2022-09-24T05:18:44.648Z,98713.72
2022-09-24T05:21:13.777Z,98714.56
2022-09-24T05:23:41.586Z,98716.56
2022-09-24T05:26:26.701Z,98713.41
2022-09-24T05:28:54.457Z,98714.44
2022-09-24T05:31:22.286Z,98707.88
2022-09-24T05:33:51.179Z,98708.66
2022-09-24T05:36:20.277Z,98708.41
2022-09-24T05:38:48.002Z,98711.78
2022-09-24T05:41:15.798Z,98725.59
2022-09-24T05:43:43.518Z,98727.16
2022-09-24T05:46:11.387Z,98721.28
2022-09-24T05:48:39.276Z,98723.47
2022-09-24T05:51:07.093Z,98715.44
2022-09-24T05:53:36.362Z,98710.53
2022-09-24T05:56:04.235Z,98719.75
2022-09-24T05:58:32.235Z,98721.47
2022-09-24T06:01:01.690Z,98721.06
2022-09-24T06:03:31.646Z,98729.72
2022-09-24T06:06:02.191Z,98726.25
2022-09-24T06:08:32.421Z,98722.94
2022-09-24T06:11:02.442Z,98719.59
2022-09-24T06:13:31.515Z,98733.47
2022-09-24T06:16:02.112Z,98737.28
2022-09-24T06:18:29.917Z,98736.53
2022-09-24T06:21:03.219Z,98729.78
2022-09-24T06:23:31.144Z,98736.38
2022-09-24T06:25:58.892Z,98735.88
2022-09-24T06:28:27.994Z,98725.94
2022-09-24T06:30:55.739Z,98736.75
2022-09-24T06:33:23.634Z,98731.44
2022-09-24T06:35:51.317Z,98742.84
2022-09-24T06:38:20.176Z,98737.31
2022-09-24T06:40:49.186Z,98736.59
2022-09-24T06:43:17.499Z,98743.81
2022-09-24T06:45:46.663Z,98739.81
2022-09-24T06:48:15.464Z,98755.69
2022-09-24T06:50:45.616Z,98764.22
2022-09-24T06:53:14.090Z,98763.75
2022-09-24T06:55:42.112Z,98755.69
2022-09-24T06:58:11.707Z,98753.72
2022-09-24T07:00:40.409Z,98750.41
2022-09-24T07:03:15.042Z,98759.75
2022-09-24T07:05:43.937Z,98757.03
2022-09-24T07:08:12.294Z,98752.00
2022-09-24T07:10:43.768Z,98748.06
2022-09-24T07:13:13.601Z,98754.56
2022-09-24T07:15:41.688Z,98754.34
2022-09-24T07:18:11.391Z,98755.28
2022-09-24T07:20:39.356Z,98753.44
2022-09-24T07:23:09.012Z,98753.09
2022-09-24T07:25:37.588Z,98765.13
2022-09-24T07:28:06.757Z,98763.72
2022-09-24T07:30:35.435Z,98768.97
2022-09-24T07:33:03.643Z,98759.53
2022-09-24T07:35:32.830Z,98766.94
2022-09-24T07:38:02.137Z,98765.25
2022-09-24T07:40:32.006Z,98778.00
2022-09-24T07:43:00.803Z,98778.56
2022-09-24T07:45:31.463Z,98783.09
2022-09-24T07:48:00.902Z,98790.47
2022-09-24T07:50:30.192Z,98784.22
2022-09-24T07:53:00.527Z,98786.16
2022-09-24T07:55:28.768Z,98770.69
2022-09-24T07:57:57.407Z,98767.94
2022-09-24T08:00:26.360Z,98762.88
2022-09-24T08:02:56.422Z,98767.97
2022-09-24T08:05:24.665Z,98768.53
2022-09-24T08:07:52.853Z,98771.44
2022-09-24T08:10:22.616Z,98771.00
2022-09-24T08:12:51.564Z,98779.00
2022-09-24T08:15:19.891Z,98780.53
2022-09-24T08:17:47.585Z,98784.78
2022-09-24T08:20:15.345Z,98795.44
2022-09-24T08:22:43.043Z,98788.75
2022-09-24T08:25:10.839Z,98795.50
2022-09-24T08:27:40.055Z,98792.69
2022-09-24T08:30:15.886Z,98783.75
2022-09-24T08:32:47.633Z,98783.16
2022-09-24T08:35:15.813Z,98788.91
2022-09-24T08:37:43.503Z,98790.66
2022-09-24T08:40:16.102Z,98791.75
2022-09-24T08:42:50.928Z,98786.41
2022-09-24T08:45:36.366Z,98789.78
2022-09-24T08:48:14.774Z,98796.38
2022-09-24T08:50:49.786Z,98801.22
2022-09-24T08:53:23.608Z,98801.00
2022-09-24T08:55:53.862Z,98802.22
2022-09-24T08:58:34.802Z,98807.56
2022-09-24T09:01:14.956Z,98795.09
2022-09-24T09:03:48.034Z,98800.56
2022-09-24T09:06:49.220Z,98791.44
2022-09-24T09:09:21.901Z,98788.56
2022-09-24T09:11:52.533Z,98779.97
2022-09-24T09:14:31.185Z,98778.78
2022-09-24T09:17:03.913Z,98782.78
2022-09-24T09:19:35.517Z,98779.38
2022-09-24T09:22:09.191Z,98780.09
2022-09-24T09:24:44.396Z,98781.06
2022-09-24T09:27:15.212Z,98793.34
2022-09-24T09:29:47.252Z,98785.16
2022-09-24T09:32:31.947Z,98793.59
2022-09-24T09:35:12.227Z,98798.13
2022-09-24T09:37:49.309Z,98793.44
2022-09-24T09:40:32.100Z,98786.88
2022-09-24T09:43:02.854Z,98786.16
2022-09-24T09:45:39.415Z,98799.69
2022-09-24T09:48:12.794Z,98791.81
2022-09-24T09:50:45.375Z,98791.13
2022-09-24T09:53:20.939Z,98794.22
2022-09-24T09:55:54.400Z,98798.81
2022-09-24T09:58:25.274Z,98801.94
2022-09-24T10:01:04.797Z,98792.38
2022-09-24T10:03:35.398Z,98789.56
2022-09-24T10:06:06.338Z,98788.94
2022-09-24T10:08:34.277Z,98786.53
2022-09-24T10:11:04.328Z,98781.22
2022-09-24T10:13:32.775Z,98778.34
2022-09-24T10:16:04.827Z,98773.53
2022-09-24T10:18:35.122Z,98780.97
2022-09-24T10:21:07.328Z,98774.63
2022-09-24T10:23:38.754Z,98763.28
2022-09-24T10:26:07.853Z,98765.06
2022-09-24T10:28:57.713Z,98765.78
2022-09-24T10:31:31.624Z,98771.31
2022-09-24T10:34:01.930Z,98770.84
2022-09-24T10:36:32.506Z,98771.44
2022-09-24T10:39:03.973Z,98761.66
2022-09-24T10:41:33.087Z,98757.25
2022-09-24T10:44:04.733Z,98761.19
2022-09-24T10:47:05.548Z,98767.47
2022-09-24T10:49:50.055Z,98758.25
2022-09-24T10:52:31.224Z,98759.94
2022-09-24T10:55:08.977Z,98767.00
2022-09-24T10:57:49.796Z,98762.78
2022-09-24T11:00:21.688Z,98765.03
2022-09-24T11:03:24.579Z,98761.78
2022-09-24T11:05:58.037Z,98756.56
2022-09-24T11:08:43.248Z,98752.72
2022-09-24T11:11:23.921Z,98749.19
2022-09-24T11:14:07.321Z,98744.91
2022-09-24T11:16:54.987Z,98743.88
2022-09-24T11:19:37.712Z,98744.94
2022-09-24T11:22:14.859Z,98750.72
2022-09-24T11:25:22.663Z,98749.63
2022-09-24T11:28:00.941Z,98749.41
2022-09-24T11:30:35.508Z,98742.88
2022-09-24T11:33:22.706Z,98751.69
2022-09-24T11:36:24.937Z,98745.94
2022-09-24T11:39:15.798Z,98745.78
2022-09-24T11:41:50.816Z,98743.00
2022-09-24T11:44:50.542Z,98755.75
2022-09-24T11:47:32.344Z,98749.72
2022-09-24T11:50:16.473Z,98754.09
2022-09-24T11:52:48.715Z,98749.50
2022-09-24T11:55:23.543Z,98753.91
2022-09-24T11:57:55.437Z,98750.28
2022-09-24T12:00:28.936Z,98751.06
2022-09-24T12:03:04.689Z,98745.41
2022-09-24T12:05:36.848Z,98742.28
2022-09-24T12:08:12.085Z,98740.34
2022-09-24T12:10:47.647Z,98732.13
2022-09-24T12:13:21.940Z,98729.59
2022-09-24T12:15:53.634Z,98737.50
2022-09-24T12:18:26.183Z,98724.69
2022-09-24T12:20:58.515Z,98730.13
2022-09-24T12:23:29.831Z,98725.53
2022-09-24T12:26:01.918Z,98730.66
2022-09-24T12:28:56.037Z,98726.84
2022-09-24T12:31:49.572Z,98727.59
2022-09-24T12:34:26.324Z,98718.25
2022-09-24T12:37:03.350Z,98720.00
2022-09-24T12:39:37.492Z,98716.84
2022-09-24T12:42:09.559Z,98717.06
2022-09-24T12:44:42.576Z,98718.38
2022-09-24T12:47:21.153Z,98712.28
2022-09-24T12:49:53.315Z,98712.28
2022-09-24T12:52:26.753Z,98708.41
2022-09-24T12:55:00.972Z,98711.31
2022-09-24T12:57:33.671Z,98702.25
2022-09-24T13:00:04.125Z,98700.59
2022-09-24T13:02:33.185Z,98699.06
2022-09-24T13:05:17.526Z,98698.75
2022-09-24T13:07:57.435Z,98690.81
2022-09-24T13:10:28.481Z,98683.44
2022-09-24T13:13:00.310Z,98687.66
2022-09-24T13:15:36.634Z,98687.75
2022-09-24T13:18:21.488Z,98694.78
2022-09-24T13:21:03.067Z,98689.59
2022-09-24T13:23:35.271Z,98687.00
2022-09-24T13:26:05.653Z,98676.44
2022-09-24T13:28:42.591Z,98673.31
2022-09-24T13:31:23.618Z,98681.34
2022-09-24T13:33:54.878Z,98680.00
2022-09-24T13:36:31.097Z,98674.84
2022-09-24T13:39:04.918Z,98676.38
2022-09-24T13:41:42.259Z,98677.66
2022-09-24T13:44:18.973Z,98683.09
2022-09-24T13:46:51.111Z,98673.59
2022-09-24T13:49:21.632Z,98684.97
2022-09-24T13:51:57.606Z,98681.22
2022-09-24T13:54:33.914Z,98675.53
2022-09-24T13:57:12.144Z,98670.38
2022-09-24T13:59:41.226Z,98665.69
2022-09-24T14:02:25.594Z,98668.03
2022-09-24T14:04:58.645Z,98674.44
2022-09-24T14:07:27.799Z,98672.06
2022-09-24T14:10:08.436Z,98675.78
2022-09-24T14:12:36.445Z,98672.09
2022-09-24T14:15:15.242Z,98667.47
2022-09-24T14:17:42.953Z,98668.06
2022-09-24T14:20:22.025Z,98668.50
2022-09-24T14:22:50.327Z,98670.31
2022-09-24T14:25:23.040Z,98676.91
2022-09-24T14:27:52.439Z,98672.28
2022-09-24T14:30:24.027Z,98662.34
2022-09-24T14:32:54.391Z,98662.38
2022-09-24T14:35:30.015Z,98661.19
2022-09-24T14:38:04.316Z,98658.69
2022-09-24T14:40:41.432Z,98661.41
2022-09-24T14:43:17.540Z,98659.16
2022-09-24T14:45:47.929Z,98658.00
2022-09-24T14:48:26.825Z,98651.94
2022-09-24T14:50:54.783Z,98649.91
2022-09-24T14:53:25.922Z,98655.63
2022-09-24T14:55:54.146Z,98644.44
2022-09-24T14:58:27.008Z,98649.81
2022-09-24T15:00:58.887Z,98639.59
2022-09-24T15:03:33.220Z,98649.00
2022-09-24T15:06:07.184Z,98646.34
2022-09-24T15:08:35.118Z,98649.41
2022-09-24T15:11:05.586Z,98652.66
2022-09-24T15:13:34.170Z,98651.13
2022-09-24T15:16:06.091Z,98658.19
2022-09-24T15:18:34.859Z,98645.03
2022-09-24T15:21:06.220Z,98647.81
2022-09-24T15:23:34.225Z,98640.59
2022-09-24T15:26:02.181Z,98645.78
2022-09-24T15:28:30.274Z,98651.56
2022-09-24T15:30:58.251Z,98649.06
2022-09-24T15:33:27.521Z,98653.78
2022-09-24T15:35:55.324Z,98652.22
2022-09-24T15:38:23.206Z,98662.19
2022-09-24T15:40:53.722Z,98655.13
2022-09-24T15:43:23.972Z,98655.03
2022-09-24T15:45:52.530Z,98647.75
2022-09-24T15:48:20.248Z,98645.34
2022-09-24T15:50:50.583Z,98645.03
2022-09-24T15:53:21.538Z,98649.06
2022-09-24T15:55:53.292Z,98648.72
2022-09-24T15:58:21.553Z,98643.59
2022-09-24T16:00:49.752Z,98652.84
2022-09-24T16:03:20.935Z,98648.72
2022-09-24T16:05:50.328Z,98650.00
2022-09-24T16:08:19.013Z,98651.56
2022-09-24T16:10:47.835Z,98651.44
2022-09-24T16:13:16.376Z,98657.22
2022-09-24T16:15:44.682Z,98649.09
2022-09-24T16:18:14.590Z,98652.69
2022-09-24T16:20:43.102Z,98648.88
2022-09-24T16:23:15.591Z,98652.50
2022-09-24T16:25:43.819Z,98655.41
2022-09-24T16:28:12.571Z,98652.25
2022-09-24T16:30:40.393Z,98645.75
2022-09-24T16:33:08.214Z,98653.84
2022-09-24T16:35:35.965Z,98651.94
2022-09-24T16:38:03.704Z,98652.13
2022-09-24T16:40:32.908Z,98649.72
2022-09-24T16:43:00.747Z,98659.00
2022-09-24T16:45:28.614Z,98651.00
2022-09-24T16:47:56.370Z,98661.22
2022-09-24T16:50:24.623Z,98650.97
2022-09-24T16:52:54.830Z,98645.47
2022-09-24T16:55:24.109Z,98660.63
2022-09-24T16:57:54.163Z,98667.66
2022-09-24T17:00:21.919Z,98659.00
2022-09-24T17:02:49.684Z,98663.28
2022-09-24T17:05:17.855Z,98667.78
2022-09-24T17:07:45.699Z,98671.69
2022-09-24T17:10:16.055Z,98666.78
2022-09-24T17:12:46.177Z,98663.13
2022-09-24T17:15:16.810Z,98663.38
2022-09-24T17:17:49.949Z,98664.44
2022-09-24T17:20:18.890Z,98660.66
2022-09-24T17:22:48.438Z,98660.97
2022-09-24T17:25:16.623Z,98666.59
2022-09-24T17:27:44.947Z,98664.28
2022-09-24T17:30:13.438Z,98671.09
2022-09-24T17:32:42.558Z,98664.22
2022-09-24T17:35:10.733Z,98665.41
2022-09-24T17:37:38.539Z,98667.47
2022-09-24T17:40:08.062Z,98664.44
2022-09-24T17:42:35.872Z,98667.94
2022-09-24T17:45:03.761Z,98678.25
2022-09-24T17:47:52.092Z,98678.34
2022-09-24T17:50:21.334Z,98688.94
2022-09-24T17:52:49.058Z,98680.00
2022-09-24T17:55:16.842Z,98685.41
2022-09-24T17:57:44.593Z,98680.44
2022-09-24T18:00:13.031Z,98679.84
2022-09-24T18:02:41.177Z,98681.19
2022-09-24T18:05:10.654Z,98685.94
2022-09-24T18:07:39.964Z,98690.94
2022-09-24T18:10:08.262Z,98679.06
2022-09-24T18:12:36.679Z,98684.72
2022-09-24T18:15:04.728Z,98687.59
2022-09-24T18:17:32.496Z,98691.25
2022-09-24T18:20:00.194Z,98683.91
2022-09-24T18:22:28.890Z,98694.91
2022-09-24T18:25:01.684Z,98688.53
2022-09-24T18:27:31.766Z,98697.78
2022-09-24T18:30:00.911Z,98697.53
2022-09-24T18:32:29.907Z,98701.34
2022-09-24T18:34:57.654Z,98690.56
2022-09-24T18:37:25.814Z,98700.78
2022-09-24T18:39:53.518Z,98707.53
2022-09-24T18:42:22.625Z,98696.91
2022-09-24T18:44:50.713Z,98704.31
2022-09-24T18:47:20.270Z,98694.94
2022-09-24T18:49:49.155Z,98699.09
2022-09-24T18:52:16.936Z,98701.84
2022-09-24T18:54:44.679Z,98698.94
2022-09-24T18:57:12.497Z,98707.34
2022-09-24T18:59:45.111Z,98711.84
2022-09-24T19:02:14.238Z,98702.31
2022-09-24T19:04:42.519Z,98709.06
2022-09-24T19:07:10.355Z,98705.50
2022-09-24T19:09:38.145Z,98703.94
2022-09-24T19:12:08.017Z,98702.38
2022-09-24T19:14:37.805Z,98702.38
2022-09-24T19:17:07.087Z,98707.56
2022-09-24T19:19:34.843Z,98705.53
2022-09-24T19:22:02.778Z,98704.09
2022-09-24T19:24:30.546Z,98699.09
2022-09-24T19:26:58.282Z,98700.34
2022-09-24T19:29:26.398Z,98706.78
2022-09-24T19:31:54.105Z,98707.22
2022-09-24T19:34:23.257Z,98698.78
2022-09-24T19:36:50.989Z,98703.66
2022-09-24T19:39:19.150Z,98702.22
2022-09-24T19:41:47.320Z,98710.78
2022-09-24T19:44:15.742Z,98710.78
2022-09-24T19:46:44.063Z,98696.09
2022-09-24T19:49:11.862Z,98710.47
2022-09-24T19:51:41.106Z,98710.84
2022-09-24T19:54:09.625Z,98710.78
2022-09-24T19:56:38.347Z,98709.06
2022-09-24T19:59:07.984Z,98715.94
2022-09-24T20:01:35.904Z,98719.38
2022-09-24T20:04:06.259Z,98710.34
2022-09-24T20:06:35.754Z,98703.16
2022-09-24T20:09:05.924Z,98717.69
2022-09-24T20:11:33.854Z,98718.00
2022-09-24T20:14:02.594Z,98712.66
2022-09-24T20:16:32.420Z,98710.63
2022-09-24T20:19:01.201Z,98712.66
2022-09-24T20:21:32.030Z,98708.31
2022-09-24T20:24:01.217Z,98707.97
2022-09-24T20:26:48.008Z,98710.34
2022-09-24T20:29:16.441Z,98712.41
2022-09-24T20:31:51.708Z,98703.63
2022-09-24T20:34:19.995Z,98709.25
2022-09-24T20:36:47.747Z,98708.31
2022-09-24T20:39:15.552Z,98706.75
2022-09-24T20:41:45.427Z,98709.88
2022-09-24T20:44:13.327Z,98714.56
2022-09-24T20:46:41.284Z,98715.16
2022-09-24T20:49:09.944Z,98716.25
2022-09-24T20:51:38.723Z,98710.94
2022-09-24T20:54:06.658Z,98707.66
2022-09-24T20:56:34.552Z,98713.47
2022-09-24T20:59:04.208Z,98719.56
2022-09-24T21:01:32.150Z,98719.25
2022-09-24T21:04:00.001Z,98713.00
2022-09-24T21:06:28.083Z,98712.22
2022-09-24T21:08:55.939Z,98714.88
2022-09-24T21:11:26.474Z,98714.41
2022-09-24T21:13:55.000Z,98723.16
2022-09-24T21:16:26.186Z,98724.88
2022-09-24T21:18:55.160Z,98720.03
2022-09-24T21:21:26.343Z,98728.00
2022-09-24T21:23:56.714Z,98721.75
2022-09-24T21:26:26.098Z,98728.47
2022-09-24T21:28:55.592Z,98737.06
2022-09-24T21:31:27.471Z,98739.72
2022-09-24T21:33:56.102Z,98737.22
2022-09-24T21:36:26.170Z,98734.72
2022-09-24T21:38:55.328Z,98726.13
2022-09-24T21:41:24.209Z,98732.38
2022-09-24T21:43:53.468Z,98725.19
2022-09-24T21:46:21.313Z,98726.59
2022-09-24T21:48:51.227Z,98723.16
2022-09-24T21:51:21.322Z,98729.88
2022-09-24T21:53:50.074Z,98723.63
2022-09-24T21:56:18.895Z,98722.50
2022-09-24T21:58:46.862Z,98718.16
2022-09-24T22:01:17.837Z,98719.56
2022-09-24T22:03:46.744Z,98718.78
2022-09-24T22:06:16.358Z,98721.75
2022-09-24T22:08:47.042Z,98712.84
2022-09-24T22:11:15.879Z,98713.00
2022-09-24T22:13:44.963Z,98709.72
2022-09-24T22:16:12.970Z,98705.34
2022-09-24T22:18:41.041Z,98707.06
2022-09-24T22:21:11.374Z,98708.47
2022-09-24T22:23:41.416Z,98711.22
2022-09-24T22:26:10.631Z,98711.75
2022-09-24T22:28:38.847Z,98711.75
2022-09-24T22:31:08.698Z,98699.72
2022-09-24T22:33:54.352Z,98712.84
2022-09-24T22:36:23.313Z,98705.50
2022-09-24T22:38:55.954Z,98703.78
2022-09-24T22:41:25.206Z,98713.47
2022-09-24T22:43:53.187Z,98710.50
2022-09-24T22:46:21.032Z,98720.19
2022-09-24T22:48:50.127Z,98714.88
2022-09-24T22:51:17.972Z,98705.97
2022-09-24T22:53:45.982Z,98711.91
2022-09-24T22:56:16.989Z,98707.97
2022-09-24T22:58:50.748Z,98710.50
2022-09-24T23:01:22.217Z,98711.72
2022-09-24T23:03:51.249Z,98704.09
2022-09-24T23:06:20.822Z,98705.56
2022-09-24T23:08:49.632Z,98697.81
2022-09-24T23:11:20.989Z,98700.03
2022-09-24T23:13:53.468Z,98699.38
2022-09-24T23:16:23.306Z,98694.41
2022-09-24T23:18:53.681Z,98694.41
2022-09-24T23:21:22.935Z,98689.25
2022-09-24T23:23:54.489Z,98682.25
2022-09-24T23:26:25.159Z,98686.63
2022-09-24T23:28:54.718Z,98687.84
2022-09-24T23:31:25.232Z,98685.75
2022-09-24T23:33:52.901Z,98693.19
2022-09-24T23:36:20.749Z,98688.28
2022-09-24T23:38:48.447Z,98691.13
2022-09-24T23:41:17.037Z,98693.63
2022-09-24T23:43:46.672Z,98687.22
2022-09-24T23:46:14.926Z,98683.97
2022-09-24T23:48:42.893Z,98685.66
2022-09-24T23:51:11.323Z,98683.16
2022-09-24T23:53:39.312Z,98692.50
2022-09-24T23:56:08.772Z,98689.72
2022-09-24T23:58:36.734Z,98694.06
